sensor_id;sensor_type;location;lat;lon;timestamp;P1;durP1;ratioP1;P2;durP2;ratioP2
18172;SDS011;9211;48.818;9.312;2023-06-04T00:00:54;12.95;;;7.50;;
18172;SDS011;9211;48.818;9.312;2023-06-04T00:03:22;13.52;;;8.10;;
18172;SDS011;9211;48.818;9.312;2023-06-04T00:05:49;11.73;;;7.78;;
18172;SDS011;9211;48.818;9.312;2023-06-04T00:08:16;12.97;;;7.50;;
18172;SDS011;9211;48.818;9.312;2023-06-04T00:10:43;16.10;;;7.95;;
18172;SDS011;9211;48.818;9.312;2023-06-04T00:13:10;14.02;;;7.60;;
18172;SDS011;9211;48.818;9.312;2023-06-04T00:15:39;14.77;;;7.78;;
18172;SDS011;9211;48.818;9.312;2023-06-04T00:18:06;13.48;;;7.82;;
18172;SDS011;9211;48.818;9.312;2023-06-04T00:20:33;15.50;;;8.02;;
18172;SDS011;9211;48.818;9.312;2023-06-04T00:23:00;11.32;;;7.22;;
18172;SDS011;9211;48.818;9.312;2023-06-04T00:25:27;14.55;;;7.15;;
18172;SDS011;9211;48.818;9.312;2023-06-04T00:27:54;14.35;;;8.05;;
18172;SDS011;9211;48.818;9.312;2023-06-04T00:30:21;16.42;;;8.02;;
18172;SDS011;9211;48.818;9.312;2023-06-04T00:32:49;14.33;;;7.93;;
18172;SDS011;9211;48.818;9.312;2023-06-04T00:35:16;14.43;;;7.63;;
18172;SDS011;9211;48.818;9.312;2023-06-04T00:37:43;11.83;;;7.90;;
18172;SDS011;9211;48.818;9.312;2023-06-04T00:40:11;13.93;;;8.13;;
18172;SDS011;9211;48.818;9.312;2023-06-04T00:42:38;15.30;;;7.65;;
18172;SDS011;9211;48.818;9.312;2023-06-04T00:45:06;13.53;;;7.80;;
18172;SDS011;9211;48.818;9.312;2023-06-04T00:47:35;12.70;;;7.60;;
18172;SDS011;9211;48.818;9.312;2023-06-04T00:50:04;15.35;;;7.70;;
18172;SDS011;9211;48.818;9.312;2023-06-04T00:52:33;16.70;;;7.68;;
18172;SDS011;9211;48.818;9.312;2023-06-04T00:55:00;13.75;;;7.57;;
18172;SDS011;9211;48.818;9.312;2023-06-04T00:57:27;12.32;;;8.10;;
18172;SDS011;9211;48.818;9.312;2023-06-04T00:59:54;13.75;;;8.18;;
18172;SDS011;9211;48.818;9.312;2023-06-04T01:02:22;14.20;;;7.80;;
18172;SDS011;9211;48.818;9.312;2023-06-04T01:04:53;14.87;;;7.73;;
18172;SDS011;9211;48.818;9.312;2023-06-04T01:07:26;12.90;;;7.60;;
18172;SDS011;9211;48.818;9.312;2023-06-04T01:09:55;13.65;;;7.47;;
18172;SDS011;9211;48.818;9.312;2023-06-04T01:12:23;11.97;;;7.20;;
18172;SDS011;9211;48.818;9.312;2023-06-04T01:14:50;14.48;;;7.80;;
18172;SDS011;9211;48.818;9.312;2023-06-04T01:17:19;14.15;;;7.80;;
18172;SDS011;9211;48.818;9.312;2023-06-04T01:19:59;14.25;;;7.38;;
18172;SDS011;9211;48.818;9.312;2023-06-04T01:22:44;12.63;;;7.38;;
18172;SDS011;9211;48.818;9.312;2023-06-04T01:25:25;12.68;;;7.60;;
18172;SDS011;9211;48.818;9.312;2023-06-04T01:27:58;10.80;;;6.85;;
18172;SDS011;9211;48.818;9.312;2023-06-04T01:30:26;13.77;;;7.10;;
18172;SDS011;9211;48.818;9.312;2023-06-04T01:32:55;12.95;;;6.95;;
18172;SDS011;9211;48.818;9.312;2023-06-04T01:35:23;14.13;;;7.35;;
18172;SDS011;9211;48.818;9.312;2023-06-04T01:37:53;13.48;;;6.93;;
18172;SDS011;9211;48.818;9.312;2023-06-04T01:40:21;14.77;;;7.38;;
18172;SDS011;9211;48.818;9.312;2023-06-04T01:42:48;14.43;;;7.28;;
18172;SDS011;9211;48.818;9.312;2023-06-04T01:45:16;12.90;;;7.47;;
18172;SDS011;9211;48.818;9.312;2023-06-04T01:47:43;11.50;;;6.80;;
18172;SDS011;9211;48.818;9.312;2023-06-04T01:50:10;10.85;;;6.97;;
18172;SDS011;9211;48.818;9.312;2023-06-04T01:52:37;11.73;;;7.18;;
18172;SDS011;9211;48.818;9.312;2023-06-04T01:55:07;10.52;;;6.65;;
18172;SDS011;9211;48.818;9.312;2023-06-04T01:57:37;11.20;;;6.78;;
18172;SDS011;9211;48.818;9.312;2023-06-04T02:02:46;13.87;;;6.97;;
18172;SDS011;9211;48.818;9.312;2023-06-04T02:05:14;12.50;;;6.80;;
18172;SDS011;9211;48.818;9.312;2023-06-04T02:07:42;12.60;;;6.80;;
18172;SDS011;9211;48.818;9.312;2023-06-04T02:10:11;12.02;;;6.80;;
18172;SDS011;9211;48.818;9.312;2023-06-04T02:12:40;13.63;;;6.45;;
18172;SDS011;9211;48.818;9.312;2023-06-04T02:15:18;10.95;;;6.32;;
18172;SDS011;9211;48.818;9.312;2023-06-04T02:17:45;10.27;;;6.80;;
18172;SDS011;9211;48.818;9.312;2023-06-04T02:20:12;10.25;;;6.55;;
18172;SDS011;9211;48.818;9.312;2023-06-04T02:22:40;11.88;;;7.25;;
18172;SDS011;9211;48.818;9.312;2023-06-04T02:25:07;11.57;;;6.72;;
18172;SDS011;9211;48.818;9.312;2023-06-04T02:27:36;13.23;;;6.90;;
18172;SDS011;9211;48.818;9.312;2023-06-04T02:30:04;12.77;;;7.07;;
18172;SDS011;9211;48.818;9.312;2023-06-04T02:32:31;11.65;;;6.95;;
18172;SDS011;9211;48.818;9.312;2023-06-04T02:35:01;11.63;;;6.93;;
18172;SDS011;9211;48.818;9.312;2023-06-04T02:37:28;11.00;;;6.70;;
18172;SDS011;9211;48.818;9.312;2023-06-04T02:39:56;13.10;;;6.97;;
18172;SDS011;9211;48.818;9.312;2023-06-04T02:42:23;12.32;;;7.50;;
18172;SDS011;9211;48.818;9.312;2023-06-04T02:44:52;12.52;;;6.75;;
18172;SDS011;9211;48.818;9.312;2023-06-04T02:47:19;11.13;;;6.53;;
18172;SDS011;9211;48.818;9.312;2023-06-04T02:49:46;12.07;;;6.60;;
18172;SDS011;9211;48.818;9.312;2023-06-04T02:52:13;13.57;;;6.95;;
18172;SDS011;9211;48.818;9.312;2023-06-04T02:54:40;10.85;;;6.50;;
18172;SDS011;9211;48.818;9.312;2023-06-04T02:57:07;11.43;;;6.33;;
18172;SDS011;9211;48.818;9.312;2023-06-04T02:59:34;12.15;;;6.03;;
18172;SDS011;9211;48.818;9.312;2023-06-04T03:02:03;11.95;;;6.43;;
18172;SDS011;9211;48.818;9.312;2023-06-04T03:04:30;12.32;;;6.20;;
18172;SDS011;9211;48.818;9.312;2023-06-04T03:07:00;11.50;;;6.20;;
18172;SDS011;9211;48.818;9.312;2023-06-04T03:09:27;12.88;;;6.45;;
18172;SDS011;9211;48.818;9.312;2023-06-04T03:11:56;9.40;;;6.10;;
18172;SDS011;9211;48.818;9.312;2023-06-04T03:14:25;10.77;;;6.55;;
18172;SDS011;9211;48.818;9.312;2023-06-04T03:16:57;12.00;;;6.43;;
18172;SDS011;9211;48.818;9.312;2023-06-04T03:19:34;11.52;;;6.40;;
18172;SDS011;9211;48.818;9.312;2023-06-04T03:22:02;13.93;;;6.30;;
18172;SDS011;9211;48.818;9.312;2023-06-04T03:24:32;12.27;;;6.40;;
18172;SDS011;9211;48.818;9.312;2023-06-04T03:27:01;11.30;;;6.55;;
18172;SDS011;9211;48.818;9.312;2023-06-04T03:29:29;12.63;;;6.47;;
18172;SDS011;9211;48.818;9.312;2023-06-04T03:31:58;12.07;;;6.10;;
18172;SDS011;9211;48.818;9.312;2023-06-04T03:34:26;12.27;;;6.50;;
18172;SDS011;9211;48.818;9.312;2023-06-04T03:36:54;14.88;;;6.63;;
18172;SDS011;9211;48.818;9.312;2023-06-04T03:39:21;10.43;;;6.20;;
18172;SDS011;9211;48.818;9.312;2023-06-04T03:41:49;12.75;;;6.28;;
18172;SDS011;9211;48.818;9.312;2023-06-04T03:44:18;10.73;;;6.28;;
18172;SDS011;9211;48.818;9.312;2023-06-04T03:46:45;11.90;;;6.78;;
18172;SDS011;9211;48.818;9.312;2023-06-04T03:49:13;12.40;;;6.63;;
18172;SDS011;9211;48.818;9.312;2023-06-04T03:51:43;10.13;;;6.50;;
18172;SDS011;9211;48.818;9.312;2023-06-04T03:54:13;13.60;;;6.75;;
18172;SDS011;9211;48.818;9.312;2023-06-04T03:56:44;9.95;;;6.82;;
18172;SDS011;9211;48.818;9.312;2023-06-04T03:59:11;12.52;;;7.10;;
18172;SDS011;9211;48.818;9.312;2023-06-04T04:01:39;11.48;;;6.82;;
18172;SDS011;9211;48.818;9.312;2023-06-04T04:04:07;12.23;;;7.32;;
18172;SDS011;9211;48.818;9.312;2023-06-04T04:06:34;10.67;;;6.60;;
18172;SDS011;9211;48.818;9.312;2023-06-04T04:09:02;11.32;;;7.00;;
18172;SDS011;9211;48.818;9.312;2023-06-04T04:11:32;12.70;;;7.15;;
18172;SDS011;9211;48.818;9.312;2023-06-04T04:14:01;11.10;;;6.47;;
18172;SDS011;9211;48.818;9.312;2023-06-04T04:16:27;11.00;;;6.60;;
18172;SDS011;9211;48.818;9.312;2023-06-04T04:18:55;9.90;;;6.68;;
18172;SDS011;9211;48.818;9.312;2023-06-04T04:21:22;9.70;;;6.78;;
18172;SDS011;9211;48.818;9.312;2023-06-04T04:23:51;13.52;;;6.70;;
18172;SDS011;9211;48.818;9.312;2023-06-04T04:26:18;10.50;;;6.37;;
18172;SDS011;9211;48.818;9.312;2023-06-04T04:28:51;12.03;;;6.50;;
18172;SDS011;9211;48.818;9.312;2023-06-04T04:31:23;11.68;;;6.70;;
18172;SDS011;9211;48.818;9.312;2023-06-04T04:33:50;12.45;;;6.75;;
18172;SDS011;9211;48.818;9.312;2023-06-04T04:36:18;12.02;;;6.60;;
18172;SDS011;9211;48.818;9.312;2023-06-04T04:38:47;10.90;;;6.22;;
18172;SDS011;9211;48.818;9.312;2023-06-04T04:41:19;9.65;;;6.35;;
18172;SDS011;9211;48.818;9.312;2023-06-04T04:43:48;12.13;;;6.70;;
18172;SDS011;9211;48.818;9.312;2023-06-04T04:46:29;11.95;;;6.13;;
18172;SDS011;9211;48.818;9.312;2023-06-04T04:48:56;11.43;;;6.50;;
18172;SDS011;9211;48.818;9.312;2023-06-04T04:51:23;11.27;;;6.50;;
18172;SDS011;9211;48.818;9.312;2023-06-04T04:53:51;11.05;;;6.63;;
18172;SDS011;9211;48.818;9.312;2023-06-04T04:56:19;12.40;;;6.60;;
18172;SDS011;9211;48.818;9.312;2023-06-04T04:58:48;10.93;;;6.43;;
18172;SDS011;9211;48.818;9.312;2023-06-04T05:01:16;8.82;;;6.05;;
18172;SDS011;9211;48.818;9.312;2023-06-04T05:03:45;10.10;;;5.80;;
18172;SDS011;9211;48.818;9.312;2023-06-04T05:06:14;11.60;;;6.20;;
18172;SDS011;9211;48.818;9.312;2023-06-04T05:08:41;11.05;;;6.03;;
18172;SDS011;9211;48.818;9.312;2023-06-04T05:11:09;9.45;;;5.50;;
18172;SDS011;9211;48.818;9.312;2023-06-04T05:13:37;13.48;;;5.50;;
18172;SDS011;9211;48.818;9.312;2023-06-04T05:16:09;7.93;;;4.97;;
18172;SDS011;9211;48.818;9.312;2023-06-04T05:18:37;10.48;;;5.30;;
18172;SDS011;9211;48.818;9.312;2023-06-04T05:21:09;9.18;;;5.10;;
18172;SDS011;9211;48.818;9.312;2023-06-04T05:23:41;7.95;;;4.50;;
18172;SDS011;9211;48.818;9.312;2023-06-04T05:26:09;9.20;;;4.50;;
18172;SDS011;9211;48.818;9.312;2023-06-04T05:28:36;7.55;;;4.20;;
18172;SDS011;9211;48.818;9.312;2023-06-04T05:31:04;6.63;;;4.00;;
18172;SDS011;9211;48.818;9.312;2023-06-04T05:33:34;8.10;;;3.83;;
18172;SDS011;9211;48.818;9.312;2023-06-04T05:36:05;6.63;;;3.78;;
18172;SDS011;9211;48.818;9.312;2023-06-04T05:38:40;7.07;;;3.50;;
18172;SDS011;9211;48.818;9.312;2023-06-04T05:41:10;6.15;;;3.20;;
18172;SDS011;9211;48.818;9.312;2023-06-04T05:43:38;8.00;;;3.10;;
18172;SDS011;9211;48.818;9.312;2023-06-04T05:46:07;7.68;;;3.28;;
18172;SDS011;9211;48.818;9.312;2023-06-04T05:48:36;5.63;;;3.17;;
18172;SDS011;9211;48.818;9.312;2023-06-04T05:51:03;5.13;;;2.80;;
18172;SDS011;9211;48.818;9.312;2023-06-04T05:53:31;5.88;;;3.20;;
18172;SDS011;9211;48.818;9.312;2023-06-04T05:55:59;5.68;;;2.80;;
18172;SDS011;9211;48.818;9.312;2023-06-04T05:58:26;6.75;;;3.10;;
18172;SDS011;9211;48.818;9.312;2023-06-04T06:00:53;5.55;;;2.58;;
18172;SDS011;9211;48.818;9.312;2023-06-04T06:03:21;5.20;;;2.50;;
18172;SDS011;9211;48.818;9.312;2023-06-04T06:05:48;5.97;;;2.63;;
18172;SDS011;9211;48.818;9.312;2023-06-04T06:08:15;4.70;;;2.40;;
18172;SDS011;9211;48.818;9.312;2023-06-04T06:10:42;5.63;;;2.20;;
18172;SDS011;9211;48.818;9.312;2023-06-04T06:13:11;4.33;;;2.40;;
18172;SDS011;9211;48.818;9.312;2023-06-04T06:15:38;3.92;;;2.17;;
18172;SDS011;9211;48.818;9.312;2023-06-04T06:18:05;3.40;;;2.03;;
18172;SDS011;9211;48.818;9.312;2023-06-04T06:20:32;3.70;;;1.95;;
18172;SDS011;9211;48.818;9.312;2023-06-04T06:23:05;3.97;;;2.10;;
18172;SDS011;9211;48.818;9.312;2023-06-04T06:25:33;4.47;;;2.22;;
18172;SDS011;9211;48.818;9.312;2023-06-04T06:28:08;4.43;;;2.07;;
18172;SDS011;9211;48.818;9.312;2023-06-04T06:30:37;4.78;;;2.03;;
18172;SDS011;9211;48.818;9.312;2023-06-04T06:33:05;5.82;;;2.00;;
18172;SDS011;9211;48.818;9.312;2023-06-04T06:35:31;6.47;;;2.13;;
18172;SDS011;9211;48.818;9.312;2023-06-04T06:37:58;3.88;;;2.15;;
18172;SDS011;9211;48.818;9.312;2023-06-04T06:40:25;4.28;;;1.90;;
18172;SDS011;9211;48.818;9.312;2023-06-04T06:42:52;3.80;;;2.00;;
18172;SDS011;9211;48.818;9.312;2023-06-04T06:45:19;2.60;;;1.90;;
18172;SDS011;9211;48.818;9.312;2023-06-04T06:47:48;4.20;;;1.70;;
18172;SDS011;9211;48.818;9.312;2023-06-04T06:50:15;4.07;;;2.08;;
18172;SDS011;9211;48.818;9.312;2023-06-04T06:52:42;4.43;;;2.00;;
18172;SDS011;9211;48.818;9.312;2023-06-04T06:55:09;3.60;;;1.90;;
18172;SDS011;9211;48.818;9.312;2023-06-04T06:57:36;4.97;;;1.90;;
18172;SDS011;9211;48.818;9.312;2023-06-04T07:00:03;10.00;;;2.70;;
18172;SDS011;9211;48.818;9.312;2023-06-04T07:02:31;7.57;;;2.23;;
18172;SDS011;9211;48.818;9.312;2023-06-04T07:04:59;4.20;;;2.30;;
18172;SDS011;9211;48.818;9.312;2023-06-04T07:07:26;4.95;;;2.08;;
18172;SDS011;9211;48.818;9.312;2023-06-04T07:09:53;3.25;;;1.95;;
18172;SDS011;9211;48.818;9.312;2023-06-04T07:12:20;4.70;;;2.13;;
18172;SDS011;9211;48.818;9.312;2023-06-04T07:14:47;4.80;;;2.10;;
18172;SDS011;9211;48.818;9.312;2023-06-04T07:17:14;5.60;;;1.90;;
18172;SDS011;9211;48.818;9.312;2023-06-04T07:19:41;6.88;;;2.45;;
18172;SDS011;9211;48.818;9.312;2023-06-04T07:22:09;4.85;;;2.28;;
18172;SDS011;9211;48.818;9.312;2023-06-04T07:24:36;6.82;;;2.30;;
18172;SDS011;9211;48.818;9.312;2023-06-04T07:27:09;4.68;;;2.05;;
18172;SDS011;9211;48.818;9.312;2023-06-04T07:29:37;3.85;;;1.90;;
18172;SDS011;9211;48.818;9.312;2023-06-04T07:32:04;5.45;;;2.40;;
18172;SDS011;9211;48.818;9.312;2023-06-04T07:34:31;4.70;;;2.22;;
18172;SDS011;9211;48.818;9.312;2023-06-04T07:36:58;4.97;;;2.10;;
18172;SDS011;9211;48.818;9.312;2023-06-04T07:39:26;6.55;;;2.22;;
18172;SDS011;9211;48.818;9.312;2023-06-04T07:41:53;7.45;;;2.35;;
18172;SDS011;9211;48.818;9.312;2023-06-04T07:44:20;3.63;;;2.10;;
18172;SDS011;9211;48.818;9.312;2023-06-04T07:46:47;4.67;;;2.20;;
18172;SDS011;9211;48.818;9.312;2023-06-04T07:49:14;4.83;;;2.27;;
18172;SDS011;9211;48.818;9.312;2023-06-04T07:51:41;4.25;;;2.10;;
18172;SDS011;9211;48.818;9.312;2023-06-04T07:54:08;4.88;;;2.33;;
18172;SDS011;9211;48.818;9.312;2023-06-04T07:56:37;3.70;;;2.28;;
18172;SDS011;9211;48.818;9.312;2023-06-04T07:59:04;4.57;;;1.95;;
18172;SDS011;9211;48.818;9.312;2023-06-04T08:01:31;3.83;;;2.20;;
18172;SDS011;9211;48.818;9.312;2023-06-04T08:03:58;5.68;;;2.20;;
18172;SDS011;9211;48.818;9.312;2023-06-04T08:06:25;5.63;;;2.10;;
18172;SDS011;9211;48.818;9.312;2023-06-04T08:08:53;4.15;;;1.90;;
18172;SDS011;9211;48.818;9.312;2023-06-04T08:11:20;5.75;;;2.30;;
18172;SDS011;9211;48.818;9.312;2023-06-04T08:13:49;3.10;;;2.17;;
18172;SDS011;9211;48.818;9.312;2023-06-04T08:16:16;4.30;;;2.17;;
18172;SDS011;9211;48.818;9.312;2023-06-04T08:18:43;4.90;;;2.03;;
18172;SDS011;9211;48.818;9.312;2023-06-04T08:21:10;4.40;;;2.20;;
18172;SDS011;9211;48.818;9.312;2023-06-04T08:23:37;4.38;;;2.25;;
18172;SDS011;9211;48.818;9.312;2023-06-04T08:26:04;4.70;;;2.20;;
18172;SDS011;9211;48.818;9.312;2023-06-04T08:28:32;3.28;;;2.05;;
18172;SDS011;9211;48.818;9.312;2023-06-04T08:31:00;3.50;;;2.20;;
18172;SDS011;9211;48.818;9.312;2023-06-04T08:33:27;3.92;;;2.13;;
18172;SDS011;9211;48.818;9.312;2023-06-04T08:35:54;3.28;;;2.00;;
18172;SDS011;9211;48.818;9.312;2023-06-04T08:38:21;5.45;;;2.30;;
18172;SDS011;9211;48.818;9.312;2023-06-04T08:40:49;4.53;;;2.53;;
18172;SDS011;9211;48.818;9.312;2023-06-04T08:43:19;3.00;;;2.08;;
18172;SDS011;9211;48.818;9.312;2023-06-04T08:45:48;3.72;;;2.10;;
18172;SDS011;9211;48.818;9.312;2023-06-04T08:48:17;5.28;;;2.20;;
18172;SDS011;9211;48.818;9.312;2023-06-04T08:50:48;3.92;;;2.15;;
18172;SDS011;9211;48.818;9.312;2023-06-04T08:53:16;4.37;;;2.30;;
18172;SDS011;9211;48.818;9.312;2023-06-04T08:55:43;4.82;;;2.30;;
18172;SDS011;9211;48.818;9.312;2023-06-04T08:58:11;4.57;;;2.20;;
18172;SDS011;9211;48.818;9.312;2023-06-04T09:00:40;3.90;;;2.20;;
18172;SDS011;9211;48.818;9.312;2023-06-04T09:03:06;4.85;;;2.60;;
18172;SDS011;9211;48.818;9.312;2023-06-04T09:05:37;14.05;;;9.05;;
18172;SDS011;9211;48.818;9.312;2023-06-04T09:08:07;7.40;;;4.30;;
18172;SDS011;9211;48.818;9.312;2023-06-04T09:10:37;12.95;;;6.90;;
18172;SDS011;9211;48.818;9.312;2023-06-04T09:13:05;11.50;;;5.47;;
18172;SDS011;9211;48.818;9.312;2023-06-04T09:15:34;6.82;;;2.63;;
18172;SDS011;9211;48.818;9.312;2023-06-04T09:18:01;4.20;;;2.30;;
18172;SDS011;9211;48.818;9.312;2023-06-04T09:20:28;4.47;;;2.42;;
18172;SDS011;9211;48.818;9.312;2023-06-04T09:22:57;5.32;;;2.50;;
18172;SDS011;9211;48.818;9.312;2023-06-04T09:25:25;5.72;;;2.45;;
18172;SDS011;9211;48.818;9.312;2023-06-04T09:27:52;4.37;;;2.20;;
18172;SDS011;9211;48.818;9.312;2023-06-04T09:30:21;6.07;;;2.60;;
18172;SDS011;9211;48.818;9.312;2023-06-04T09:32:48;4.60;;;2.30;;
18172;SDS011;9211;48.818;9.312;2023-06-04T09:35:15;3.85;;;2.38;;
18172;SDS011;9211;48.818;9.312;2023-06-04T09:37:51;4.32;;;2.38;;
18172;SDS011;9211;48.818;9.312;2023-06-04T09:40:20;4.32;;;2.50;;
18172;SDS011;9211;48.818;9.312;2023-06-04T09:42:48;4.28;;;2.35;;
18172;SDS011;9211;48.818;9.312;2023-06-04T09:45:26;6.60;;;2.65;;
18172;SDS011;9211;48.818;9.312;2023-06-04T09:47:54;5.35;;;2.40;;
18172;SDS011;9211;48.818;9.312;2023-06-04T09:50:24;5.97;;;2.47;;
18172;SDS011;9211;48.818;9.312;2023-06-04T09:52:52;4.63;;;2.60;;
18172;SDS011;9211;48.818;9.312;2023-06-04T09:55:20;6.13;;;2.85;;
18172;SDS011;9211;48.818;9.312;2023-06-04T09:57:48;5.57;;;2.75;;
18172;SDS011;9211;48.818;9.312;2023-06-04T10:00:16;3.83;;;2.55;;
18172;SDS011;9211;48.818;9.312;2023-06-04T10:02:45;6.15;;;2.50;;
18172;SDS011;9211;48.818;9.312;2023-06-04T10:05:14;5.80;;;2.40;;
18172;SDS011;9211;48.818;9.312;2023-06-04T10:07:44;4.78;;;2.30;;
18172;SDS011;9211;48.818;9.312;2023-06-04T10:10:14;4.25;;;2.60;;
18172;SDS011;9211;48.818;9.312;2023-06-04T10:12:44;6.22;;;2.70;;
18172;SDS011;9211;48.818;9.312;2023-06-04T10:15:15;6.53;;;2.80;;
18172;SDS011;9211;48.818;9.312;2023-06-04T10:17:44;4.28;;;2.45;;
18172;SDS011;9211;48.818;9.312;2023-06-04T10:20:14;4.78;;;2.40;;
18172;SDS011;9211;48.818;9.312;2023-06-04T10:22:42;4.28;;;2.33;;
18172;SDS011;9211;48.818;9.312;2023-06-04T10:25:09;4.10;;;2.20;;
18172;SDS011;9211;48.818;9.312;2023-06-04T10:27:36;4.93;;;2.75;;
18172;SDS011;9211;48.818;9.312;2023-06-04T10:30:06;4.63;;;2.40;;
18172;SDS011;9211;48.818;9.312;2023-06-04T10:32:34;4.35;;;2.65;;
18172;SDS011;9211;48.818;9.312;2023-06-04T10:35:03;4.40;;;2.50;;
18172;SDS011;9211;48.818;9.312;2023-06-04T10:37:32;5.20;;;2.40;;
18172;SDS011;9211;48.818;9.312;2023-06-04T10:40:00;4.55;;;2.60;;
18172;SDS011;9211;48.818;9.312;2023-06-04T10:42:37;4.45;;;2.63;;
18172;SDS011;9211;48.818;9.312;2023-06-04T10:45:07;5.70;;;2.80;;
18172;SDS011;9211;48.818;9.312;2023-06-04T10:47:36;5.03;;;2.80;;
18172;SDS011;9211;48.818;9.312;2023-06-04T10:50:09;5.68;;;2.67;;
18172;SDS011;9211;48.818;9.312;2023-06-04T10:52:37;4.20;;;2.75;;
18172;SDS011;9211;48.818;9.312;2023-06-04T10:55:05;4.05;;;2.60;;
18172;SDS011;9211;48.818;9.312;2023-06-04T10:57:33;5.13;;;2.80;;
18172;SDS011;9211;48.818;9.312;2023-06-04T11:00:00;5.20;;;2.80;;
18172;SDS011;9211;48.818;9.312;2023-06-04T11:02:32;5.03;;;2.80;;
18172;SDS011;9211;48.818;9.312;2023-06-04T11:04:59;4.93;;;2.70;;
18172;SDS011;9211;48.818;9.312;2023-06-04T11:07:28;7.40;;;3.00;;
18172;SDS011;9211;48.818;9.312;2023-06-04T11:10:06;6.82;;;3.30;;
18172;SDS011;9211;48.818;9.312;2023-06-04T11:12:40;5.82;;;3.00;;
18172;SDS011;9211;48.818;9.312;2023-06-04T11:15:08;6.25;;;2.72;;
18172;SDS011;9211;48.818;9.312;2023-06-04T11:17:37;4.47;;;2.75;;
18172;SDS011;9211;48.818;9.312;2023-06-04T11:20:05;5.93;;;2.58;;
18172;SDS011;9211;48.818;9.312;2023-06-04T11:22:42;5.95;;;2.95;;
18172;SDS011;9211;48.818;9.312;2023-06-04T11:25:16;4.53;;;2.70;;
18172;SDS011;9211;48.818;9.312;2023-06-04T11:27:43;6.10;;;2.95;;
18172;SDS011;9211;48.818;9.312;2023-06-04T11:30:10;4.40;;;2.88;;
18172;SDS011;9211;48.818;9.312;2023-06-04T11:32:40;4.93;;;2.58;;
18172;SDS011;9211;48.818;9.312;2023-06-04T11:35:07;5.35;;;2.58;;
18172;SDS011;9211;48.818;9.312;2023-06-04T11:37:36;4.68;;;2.50;;
18172;SDS011;9211;48.818;9.312;2023-06-04T11:40:14;5.75;;;2.70;;
18172;SDS011;9211;48.818;9.312;2023-06-04T11:42:42;4.65;;;2.65;;
18172;SDS011;9211;48.818;9.312;2023-06-04T11:45:10;7.60;;;2.97;;
18172;SDS011;9211;48.818;9.312;2023-06-04T11:47:39;6.28;;;2.80;;
18172;SDS011;9211;48.818;9.312;2023-06-04T11:50:07;6.55;;;2.85;;
18172;SDS011;9211;48.818;9.312;2023-06-04T11:52:36;8.23;;;2.92;;
18172;SDS011;9211;48.818;9.312;2023-06-04T11:55:04;4.65;;;2.80;;
18172;SDS011;9211;48.818;9.312;2023-06-04T11:57:34;6.13;;;3.17;;
18172;SDS011;9211;48.818;9.312;2023-06-04T12:00:01;6.10;;;3.15;;
18172;SDS011;9211;48.818;9.312;2023-06-04T12:02:30;4.88;;;3.00;;
18172;SDS011;9211;48.818;9.312;2023-06-04T12:04:58;4.93;;;2.95;;
18172;SDS011;9211;48.818;9.312;2023-06-04T12:07:25;5.20;;;3.10;;
18172;SDS011;9211;48.818;9.312;2023-06-04T12:09:52;4.35;;;2.95;;
18172;SDS011;9211;48.818;9.312;2023-06-04T12:12:21;5.43;;;3.25;;
18172;SDS011;9211;48.818;9.312;2023-06-04T12:14:56;6.10;;;3.10;;
18172;SDS011;9211;48.818;9.312;2023-06-04T12:17:24;5.10;;;2.95;;
18172;SDS011;9211;48.818;9.312;2023-06-04T12:19:51;4.90;;;2.60;;
18172;SDS011;9211;48.818;9.312;2023-06-04T12:22:19;4.53;;;2.55;;
18172;SDS011;9211;48.818;9.312;2023-06-04T12:24:47;6.63;;;2.58;;
18172;SDS011;9211;48.818;9.312;2023-06-04T12:27:18;4.55;;;2.53;;
18172;SDS011;9211;48.818;9.312;2023-06-04T12:29:54;5.35;;;2.58;;
18172;SDS011;9211;48.818;9.312;2023-06-04T12:32:21;4.05;;;2.63;;
18172;SDS011;9211;48.818;9.312;2023-06-04T12:34:48;8.50;;;5.00;;
18172;SDS011;9211;48.818;9.312;2023-06-04T12:37:15;9.48;;;4.95;;
18172;SDS011;9211;48.818;9.312;2023-06-04T12:39:44;6.60;;;3.30;;
18172;SDS011;9211;48.818;9.312;2023-06-04T12:42:11;6.00;;;3.00;;
18172;SDS011;9211;48.818;9.312;2023-06-04T12:44:39;4.68;;;2.78;;
18172;SDS011;9211;48.818;9.312;2023-06-04T12:47:06;6.28;;;2.85;;
18172;SDS011;9211;48.818;9.312;2023-06-04T12:49:34;4.18;;;2.60;;
18172;SDS011;9211;48.818;9.312;2023-06-04T12:52:01;5.43;;;2.80;;
18172;SDS011;9211;48.818;9.312;2023-06-04T12:54:28;7.97;;;2.80;;
18172;SDS011;9211;48.818;9.312;2023-06-04T12:56:57;5.60;;;2.80;;
18172;SDS011;9211;48.818;9.312;2023-06-04T12:59:25;5.15;;;2.90;;
18172;SDS011;9211;48.818;9.312;2023-06-04T13:01:53;5.03;;;2.85;;
18172;SDS011;9211;48.818;9.312;2023-06-04T13:04:20;4.68;;;3.17;;
18172;SDS011;9211;48.818;9.312;2023-06-04T13:06:49;5.75;;;3.10;;
18172;SDS011;9211;48.818;9.312;2023-06-04T13:09:17;4.20;;;2.80;;
18172;SDS011;9211;48.818;9.312;2023-06-04T13:11:45;4.90;;;2.90;;
18172;SDS011;9211;48.818;9.312;2023-06-04T13:14:14;5.28;;;3.05;;
18172;SDS011;9211;48.818;9.312;2023-06-04T13:16:42;5.00;;;3.00;;
18172;SDS011;9211;48.818;9.312;2023-06-04T13:19:10;4.88;;;2.95;;
18172;SDS011;9211;48.818;9.312;2023-06-04T13:21:38;4.38;;;2.90;;
18172;SDS011;9211;48.818;9.312;2023-06-04T13:24:05;5.40;;;2.92;;
18172;SDS011;9211;48.818;9.312;2023-06-04T13:26:32;4.10;;;2.78;;
18172;SDS011;9211;48.818;9.312;2023-06-04T13:28:59;4.22;;;2.58;;
18172;SDS011;9211;48.818;9.312;2023-06-04T13:31:28;5.93;;;3.10;;
18172;SDS011;9211;48.818;9.312;2023-06-04T13:33:55;6.20;;;2.60;;
18172;SDS011;9211;48.818;9.312;2023-06-04T13:36:22;5.97;;;2.88;;
18172;SDS011;9211;48.818;9.312;2023-06-04T13:38:49;5.60;;;2.80;;
18172;SDS011;9211;48.818;9.312;2023-06-04T13:41:17;4.28;;;2.55;;
18172;SDS011;9211;48.818;9.312;2023-06-04T13:43:46;4.63;;;2.70;;
18172;SDS011;9211;48.818;9.312;2023-06-04T13:46:13;5.47;;;2.50;;
18172;SDS011;9211;48.818;9.312;2023-06-04T13:48:42;4.35;;;2.70;;
18172;SDS011;9211;48.818;9.312;2023-06-04T13:51:09;5.80;;;3.00;;
18172;SDS011;9211;48.818;9.312;2023-06-04T13:53:36;5.03;;;2.70;;
18172;SDS011;9211;48.818;9.312;2023-06-04T13:56:03;5.07;;;3.05;;
18172;SDS011;9211;48.818;9.312;2023-06-04T13:58:30;3.90;;;2.70;;
18172;SDS011;9211;48.818;9.312;2023-06-04T14:00:57;4.65;;;2.90;;
18172;SDS011;9211;48.818;9.312;2023-06-04T14:03:24;6.45;;;3.05;;
18172;SDS011;9211;48.818;9.312;2023-06-04T14:05:53;3.92;;;2.85;;
18172;SDS011;9211;48.818;9.312;2023-06-04T14:08:20;12.27;;;8.15;;
18172;SDS011;9211;48.818;9.312;2023-06-04T14:10:47;6.33;;;3.97;;
18172;SDS011;9211;48.818;9.312;2023-06-04T14:13:17;4.88;;;3.13;;
18172;SDS011;9211;48.818;9.312;2023-06-04T14:15:44;5.00;;;2.90;;
18172;SDS011;9211;48.818;9.312;2023-06-04T14:18:11;4.40;;;2.75;;
18172;SDS011;9211;48.818;9.312;2023-06-04T14:20:38;4.57;;;3.03;;
18172;SDS011;9211;48.818;9.312;2023-06-04T14:23:07;4.83;;;2.90;;
18172;SDS011;9211;48.818;9.312;2023-06-04T14:25:34;5.23;;;2.83;;
18172;SDS011;9211;48.818;9.312;2023-06-04T14:28:01;4.53;;;2.80;;
18172;SDS011;9211;48.818;9.312;2023-06-04T14:30:28;5.32;;;2.95;;
18172;SDS011;9211;48.818;9.312;2023-06-04T14:32:55;4.82;;;2.78;;
18172;SDS011;9211;48.818;9.312;2023-06-04T14:35:22;3.70;;;2.90;;
18172;SDS011;9211;48.818;9.312;2023-06-04T14:37:49;4.47;;;2.88;;
18172;SDS011;9211;48.818;9.312;2023-06-04T14:40:18;3.97;;;2.90;;
18172;SDS011;9211;48.818;9.312;2023-06-04T14:42:45;4.53;;;2.92;;
18172;SDS011;9211;48.818;9.312;2023-06-04T14:45:12;4.40;;;2.60;;
18172;SDS011;9211;48.818;9.312;2023-06-04T14:47:39;4.95;;;2.88;;
18172;SDS011;9211;48.818;9.312;2023-06-04T14:50:06;3.30;;;2.50;;
18172;SDS011;9211;48.818;9.312;2023-06-04T14:52:33;4.47;;;2.97;;
18172;SDS011;9211;48.818;9.312;2023-06-04T14:55:00;4.18;;;2.65;;
18172;SDS011;9211;48.818;9.312;2023-06-04T14:57:29;4.50;;;2.90;;
18172;SDS011;9211;48.818;9.312;2023-06-04T14:59:56;4.95;;;2.85;;
18172;SDS011;9211;48.818;9.312;2023-06-04T15:02:23;5.10;;;2.80;;
18172;SDS011;9211;48.818;9.312;2023-06-04T15:04:50;4.43;;;2.80;;
18172;SDS011;9211;48.818;9.312;2023-06-04T15:07:17;4.03;;;2.67;;